Time;durP1;ratioP1;P1;durP2;ratioP2;P2;SDS_P1;SDS_P2;PMS_P1;PMS_P2;Temp;Humidity;BMP_temperature;BMP_pressure;BME280_temperature;BME280_humidity;BME280_pressure;Samples;Min_cycle;Max_cycle;Signal;HPM_P1;HPM_P2
2023/10/31 00:01:52;;;;;;;18.48;8.75;;;11.10;99.90;;;10.90;100.00;97955.72;5026621;28;20473;-81
2023/10/31 00:04:17;;;;;;;17.50;10.13;;;11.20;99.90;;;10.91;100.00;97952.69;5023853;28;20041;-81
2023/10/31 00:06:43;;;;;;;14.30;8.85;;;11.20;99.90;;;10.94;100.00;97946.66;5016524;28;20135;-80
2023/10/31 00:09:10;;;;;;;16.50;8.70;;;11.30;99.90;;;10.99;100.00;97939.53;5038715;28;20119;-82
2023/10/31 00:11:37;;;;;;;15.95;9.15;;;11.30;99.90;;;11.01;100.00;97926.44;5030669;28;20033;-81
2023/10/31 00:14:03;;;;;;;25.52;9.80;;;11.30;99.90;;;10.98;100.00;97914.16;5025194;28;20038;-82
2023/10/31 00:16:29;;;;;;;14.85;8.85;;;11.30;99.90;;;11.00;100.00;97898.31;5020034;28;20030;-81
2023/10/31 00:18:55;;;;;;;15.05;9.15;;;11.30;99.90;;;11.01;100.00;97902.69;5019282;28;20089;-82
2023/10/31 00:21:20;;;;;;;18.20;9.55;;;11.40;99.90;;;10.97;100.00;97884.44;5022037;28;20036;-82
2023/10/31 00:23:48;;;;;;;13.05;8.38;;;11.30;99.90;;;11.01;100.00;97878.13;5017017;28;20038;-81
2023/10/31 00:26:14;;;;;;;16.13;8.85;;;11.30;99.90;;;11.00;100.00;97873.78;5011438;28;20030;-82
2023/10/31 00:28:46;;;;;;;15.27;8.98;;;11.30;99.90;;;11.04;100.00;97874.03;5026300;28;20046;-81
2023/10/31 00:31:14;;;;;;;16.95;8.63;;;11.40;99.90;;;11.07;100.00;97882.44;5016349;28;20041;-81
2023/10/31 00:33:40;;;;;;;14.48;8.32;;;11.40;99.90;;;11.04;100.00;97876.75;5013438;28;20055;-81
2023/10/31 00:36:06;;;;;;;16.35;8.70;;;11.30;99.90;;;11.03;100.00;97865.00;5037400;28;20033;-82
2023/10/31 00:38:32;;;;;;;14.65;7.93;;;11.40;99.90;;;11.05;100.00;97873.72;5029558;28;20072;-81
2023/10/31 00:40:58;;;;;;;14.77;7.70;;;11.40;99.90;;;11.10;100.00;97872.03;5042548;28;20048;-81
2023/10/31 00:43:24;;;;;;;13.55;8.13;;;11.50;99.90;;;11.12;100.00;97856.19;5039341;28;20038;-82
2023/10/31 00:45:50;;;;;;;12.98;7.82;;;11.50;99.90;;;11.10;100.00;97850.22;4995300;28;20040;-81
2023/10/31 00:48:16;;;;;;;14.20;8.02;;;11.50;99.90;;;11.14;100.00;97862.16;5028786;28;20117;-82
2023/10/31 00:50:43;;;;;;;12.68;7.55;;;11.50;99.90;;;11.15;100.00;97869.28;5027601;28;20099;-82
2023/10/31 00:53:10;;;;;;;12.52;7.57;;;11.50;99.90;;;11.18;100.00;97863.25;5022042;28;20083;-80
2023/10/31 00:55:36;;;;;;;14.43;7.68;;;11.50;99.90;;;11.20;100.00;97864.56;5041124;28;20231;-81
2023/10/31 00:58:04;;;;;;;10.60;6.70;;;11.50;99.90;;;11.20;100.00;97871.94;5030408;28;20044;-82
2023/10/31 01:00:31;;;;;;;13.00;6.88;;;11.50;99.90;;;11.23;100.00;97879.56;5042254;28;20033;-81
2023/10/31 01:02:57;;;;;;;12.80;7.05;;;11.50;99.90;;;11.16;100.00;97866.25;5021104;28;20038;-82
2023/10/31 01:05:23;;;;;;;10.15;7.50;;;11.60;99.90;;;11.17;100.00;97883.44;5030910;28;20047;-82
2023/10/31 01:07:49;;;;;;;14.15;7.47;;;11.60;99.90;;;11.08;100.00;97853.25;5024880;28;20038;-83
2023/10/31 01:10:15;;;;;;;14.40;7.25;;;11.60;99.90;;;11.19;100.00;97862.13;5035798;28;20033;-83
2023/10/31 01:12:40;;;;;;;10.50;6.80;;;11.60;99.90;;;11.20;100.00;97855.59;5024254;28;20046;-82
2023/10/31 01:15:07;;;;;;;11.70;6.50;;;11.60;99.90;;;11.21;100.00;97851.75;5029202;28;20037;-82
2023/10/31 01:17:33;;;;;;;11.43;7.03;;;11.60;99.90;;;11.30;100.00;97849.19;5021467;28;20555;-81
2023/10/31 01:19:58;;;;;;;9.82;6.10;;;11.70;99.90;;;11.29;100.00;97848.38;5021836;28;20038;-81
2023/10/31 01:22:24;;;;;;;9.70;6.35;;;11.60;99.90;;;11.30;100.00;97854.66;5024006;28;20084;-81
2023/10/31 01:24:50;;;;;;;11.75;6.65;;;11.70;99.90;;;11.31;100.00;97859.00;5026565;28;20034;-82
2023/10/31 01:27:16;;;;;;;11.52;6.60;;;11.70;99.90;;;11.30;100.00;97857.38;5019175;28;20122;-82
2023/10/31 01:29:42;;;;;;;14.55;6.45;;;11.70;99.90;;;11.33;100.00;97854.06;5041274;28;20037;-83
2023/10/31 01:32:08;;;;;;;8.93;6.28;;;11.70;99.90;;;11.19;100.00;97826.66;5016994;28;20033;-82
2023/10/31 01:34:33;;;;;;;9.80;6.13;;;11.70;99.90;;;11.38;100.00;97851.28;5031261;28;20091;-82
2023/10/31 01:36:59;;;;;;;11.95;6.70;;;11.70;99.90;;;11.42;100.00;97857.00;5023039;28;20046;-81
2023/10/31 01:39:26;;;;;;;12.70;6.45;;;11.70;99.90;;;11.45;100.00;97859.13;5024520;28;20025;-82
2023/10/31 01:41:54;;;;;;;9.13;6.47;;;11.70;99.90;;;11.48;100.00;97880.38;5016367;28;20512;-82
2023/10/31 01:44:20;;;;;;;;;;;11.70;99.90;;;11.44;100.00;97871.94;5027386;28;20038;-82
2023/10/31 01:46:46;;;;;;;9.15;5.90;;;11.70;99.90;;;11.45;100.00;97872.78;5013155;28;19918;-82
2023/10/31 01:49:14;;;;;;;10.48;6.78;;;11.70;99.90;;;11.48;100.00;97877.66;5017890;28;20088;-82
2023/10/31 01:51:45;;;;;;;;;;;11.70;99.90;;;11.50;100.00;97868.06;5018275;28;20104;-83
2023/10/31 01:54:12;;;;;;;10.95;6.50;;;11.70;99.90;;;11.54;100.00;97870.19;5022380;28;19917;-81
2023/10/31 01:56:39;;;;;;;9.57;6.45;;;11.70;99.90;;;11.59;100.00;97861.97;5030873;28;20485;-81
2023/10/31 01:59:07;;;;;;;11.60;6.70;;;11.80;99.90;;;11.62;100.00;97870.38;5018608;28;20604;-82
2023/10/31 02:01:39;;;;;;;9.70;6.40;;;11.80;99.90;;;11.63;100.00;97869.25;5044529;28;20124;-81
2023/10/31 02:04:05;;;;;;;11.35;6.40;;;11.80;99.90;;;11.64;100.00;97864.63;5013902;28;20042;-80
2023/10/31 02:06:31;;;;;;;9.88;6.38;;;11.80;99.90;;;11.56;100.00;97854.38;5012922;28;20122;-83
2023/10/31 02:08:57;;;;;;;11.45;6.75;;;11.90;99.90;;;11.61;100.00;97882.41;5022375;28;20091;-81
2023/10/31 02:11:22;;;;;;;10.70;6.20;;;11.90;99.90;;;11.65;100.00;97872.50;5020116;28;20105;-82
2023/10/31 02:13:48;;;;;;;13.43;7.38;;;11.90;99.90;;;11.65;100.00;97875.25;5028381;28;20049;-81
2023/10/31 02:16:15;;;;;;;13.32;8.10;;;11.90;99.90;;;11.65;100.00;97880.72;5016145;28;20041;-81
2023/10/31 02:18:41;;;;;;;12.43;8.30;;;11.90;99.90;;;11.65;100.00;97869.78;5022716;28;20095;-82
2023/10/31 02:21:06;;;;;;;12.07;7.72;;;11.90;99.90;;;11.64;100.00;97865.44;5030609;28;20105;-81
2023/10/31 02:23:32;;;;;;;12.88;8.27;;;12.00;99.90;;;11.72;100.00;97879.56;5033813;28;20066;-81
2023/10/31 02:25:58;;;;;;;13.07;8.35;;;12.00;99.90;;;11.70;100.00;97879.03;5027747;28;20041;-81
2023/10/31 02:28:27;;;;;;;13.18;8.20;;;12.00;99.90;;;11.78;100.00;97905.69;5017918;28;20034;-81
2023/10/31 02:30:54;;;;;;;14.00;8.32;;;12.00;99.90;;;11.66;100.00;97912.38;5019910;28;20030;-82
2023/10/31 02:33:21;;;;;;;10.65;8.02;;;12.10;99.90;;;11.74;100.00;97929.25;5023683;28;20041;-81
2023/10/31 02:35:47;;;;;;;12.45;8.55;;;12.10;99.90;;;11.79;100.00;97942.84;5029322;28;20045;-82
2023/10/31 02:38:13;;;;;;;12.82;8.15;;;12.10;99.90;;;11.75;100.00;97926.19;5020230;28;20029;-82
2023/10/31 02:40:39;;;;;;;11.05;7.60;;;12.20;99.90;;;11.85;100.00;97936.19;5031782;28;20095;-82
2023/10/31 02:43:05;;;;;;;16.52;8.32;;;12.20;99.90;;;11.87;100.00;97944.91;5031493;28;20034;-82
2023/10/31 02:45:32;;;;;;;10.55;7.95;;;12.10;99.90;;;11.89;100.00;97950.91;5027023;28;20033;-83
2023/10/31 02:48:00;;;;;;;10.48;8.05;;;12.20;99.90;;;11.87;100.00;97944.91;5040200;28;20033;-81
2023/10/31 02:50:25;;;;;;;11.40;8.57;;;12.20;99.90;;;11.89;100.00;97947.38;5025560;28;20034;-82
2023/10/31 02:52:51;;;;;;;11.63;8.38;;;12.10;99.90;;;11.88;100.00;97945.75;5027407;28;20489;-81
2023/10/31 02:55:17;;;;;;;10.52;7.75;;;12.20;99.90;;;11.84;100.00;97950.16;5025852;28;20114;-81
2023/10/31 02:57:43;;;;;;;12.77;7.63;;;12.10;99.90;;;11.90;100.00;97960.72;5044488;28;20064;-82
2023/10/31 03:00:13;;;;;;;12.07;7.30;;;12.20;99.90;;;11.88;100.00;97956.66;5034139;28;20037;-81
2023/10/31 03:02:39;;;;;;;11.50;7.10;;;12.20;99.90;;;11.89;100.00;97961.03;5019559;28;20057;-83
2023/10/31 03:05:05;;;;;;;10.25;6.95;;;12.10;99.90;;;11.88;100.00;97960.19;5030594;28;20078;-83
2023/10/31 03:07:31;;;;;;;10.30;6.95;;;12.10;99.90;;;11.86;100.00;97958.88;5028972;28;20038;-82
2023/10/31 03:09:57;;;;;;;10.45;6.38;;;12.10;99.90;;;11.84;100.00;97959.16;5024140;28;20401;-82
2023/10/31 03:12:24;;;;;;;8.50;5.65;;;12.10;99.90;;;11.89;100.00;97952.84;5018316;28;20034;-82
2023/10/31 03:14:50;;;;;;;8.50;5.25;;;12.10;99.90;;;11.88;100.00;97943.00;5043029;28;20041;-82
2023/10/31 03:17:16;;;;;;;8.05;5.03;;;12.10;99.90;;;11.93;100.00;97942.94;5022024;28;20056;-82
2023/10/31 03:19:42;;;;;;;8.80;4.93;;;12.20;99.90;;;11.95;100.00;97943.47;5020682;28;20034;-83
2023/10/31 03:22:08;;;;;;;9.20;5.95;;;12.20;99.90;;;12.00;100.00;97957.06;5016124;28;20496;-82
2023/10/31 03:24:33;;;;;;;10.10;6.95;;;12.20;99.90;;;12.00;100.00;97953.53;5018350;28;20030;-82
2023/10/31 03:26:59;;;;;;;8.68;5.90;;;12.20;99.90;;;12.02;100.00;97954.06;5026144;28;20040;-82
2023/10/31 03:29:25;;;;;;;10.18;7.07;;;12.30;99.90;;;12.03;100.00;97964.69;5025538;28;20895;-83
2023/10/31 03:31:51;;;;;;;8.88;6.65;;;12.30;99.90;;;12.01;100.00;97960.66;5026032;28;20032;-82
2023/10/31 03:34:16;;;;;;;8.63;6.32;;;12.30;99.90;;;12.03;100.00;97972.09;5023274;28;20594;-83
2023/10/31 03:36:42;;;;;;;8.77;6.10;;;12.30;99.90;;;12.06;100.00;97985.16;5012530;28;20579;-83
2023/10/31 03:39:08;;;;;;;9.73;6.05;;;12.30;99.90;;;12.07;100.00;97998.56;5020775;28;20033;-82
2023/10/31 03:41:34;;;;;;;8.35;5.55;;;12.30;99.90;;;11.94;100.00;98016.44;5024829;28;20029;-83
2023/10/31 03:43:59;;;;;;;7.28;4.72;;;12.30;99.90;;;11.69;100.00;98049.47;5038883;28;20447;-82
2023/10/31 03:46:25;;;;;;;6.35;5.15;;;12.10;99.90;;;11.45;100.00;98118.47;5040999;28;20060;-82
2023/10/31 03:48:51;;;;;;;7.15;4.90;;;11.90;99.90;;;11.31;100.00;98168.22;5038518;28;20037;-83
2023/10/31 03:51:16;;;;;;;5.57;4.55;;;11.80;99.90;;;11.40;100.00;98219.50;5027964;28;20036;-82
2023/10/31 03:53:42;;;;;;;7.45;4.72;;;11.70;99.90;;;11.33;100.00;98258.84;5018115;28;20034;-82
2023/10/31 03:56:08;;;;;;;6.70;4.60;;;11.70;99.90;;;11.31;100.00;98309.38;5023105;28;20033;-84
2023/10/31 03:58:34;;;;;;;5.57;4.60;;;11.70;99.90;;;11.37;100.00;98350.00;5026959;28;20083;-84
2023/10/31 04:00:59;;;;;;;4.88;3.95;;;11.70;99.90;;;11.36;100.00;98389.31;5019752;28;20113;-83
2023/10/31 04:03:25;;;;;;;4.40;3.85;;;11.70;99.90;;;11.38;100.00;98419.06;5023363;28;20041;-82
2023/10/31 04:05:51;;;;;;;5.47;3.75;;;11.70;99.90;;;11.32;100.00;98434.63;5022406;28;20030;-83
2023/10/31 04:08:17;;;;;;;5.10;4.03;;;11.70;99.90;;;11.37;100.00;98440.06;5012494;28;20389;-83
2023/10/31 04:10:43;;;;;;;4.50;4.00;;;11.70;99.90;;;11.29;100.00;98431.66;5011581;28;20444;-83
2023/10/31 04:13:08;;;;;;;5.43;4.32;;;11.60;99.90;;;11.29;100.00;98437.91;5023561;28;20627;-82
2023/10/31 04:15:34;;;;;;;5.32;3.60;;;11.70;99.90;;;11.34;100.00;98470.66;5025261;28;20037;-82
2023/10/31 04:18:00;;;;;;;5.28;3.28;;;11.60;99.90;;;11.32;100.00;98483.78;5028954;28;20042;-82
2023/10/31 04:20:26;;;;;;;4.25;3.63;;;11.70;99.90;;;11.33;100.00;98488.13;5020067;28;20626;-83
2023/10/31 04:22:51;;;;;;;6.15;3.10;;;11.60;99.90;;;11.29;100.00;98491.72;5030311;28;20037;-83
2023/10/31 04:25:17;;;;;;;3.72;3.00;;;11.60;99.90;;;11.27;100.00;98497.44;5021017;28;20052;-84
2023/10/31 04:27:43;;;;;;;5.30;3.42;;;11.60;99.90;;;11.31;100.00;98516.81;5025977;28;20354;-84
2023/10/31 04:30:09;;;;;;;3.70;3.00;;;11.60;99.90;;;11.21;100.00;98504.00;5026444;28;20042;-83
2023/10/31 04:32:35;;;;;;;3.20;2.50;;;11.50;99.90;;;11.23;100.00;98535.34;5033410;28;20083;-84
2023/10/31 04:35:01;;;;;;;3.70;2.30;;;11.60;99.90;;;11.22;100.00;98539.19;5037076;28;20481;-83
2023/10/31 04:37:26;;;;;;;4.82;2.63;;;11.60;99.90;;;11.32;100.00;98559.41;5036261;28;20026;-83
2023/10/31 04:39:52;;;;;;;3.50;2.60;;;11.60;99.90;;;11.17;100.00;98544.63;5032500;28;20049;-82
2023/10/31 04:42:20;;;;;;;4.50;2.67;;;11.60;99.90;;;11.18;100.00;98546.28;5024137;28;20394;-83
2023/10/31 04:44:46;;;;;;;3.25;2.15;;;11.60;99.90;;;11.10;100.00;98560.47;5023699;28;20037;-83
2023/10/31 04:47:11;;;;;;;3.67;1.95;;;11.60;99.90;;;11.12;100.00;98557.44;5035226;28;20502;-82
2023/10/31 04:49:37;;;;;;;2.05;1.48;;;11.60;99.90;;;11.07;100.00;98580.13;5016418;28;20038;-82
2023/10/31 04:52:03;;;;;;;3.13;1.10;;;11.50;99.90;;;11.07;100.00;98591.84;5028513;28;20661;-81
2023/10/31 04:54:29;;;;;;;2.88;1.02;;;11.50;99.90;;;10.99;100.00;98595.09;5015419;28;20472;-82
2023/10/31 04:56:55;;;;;;;2.30;0.70;;;11.40;99.90;;;11.00;100.00;98598.63;5014649;28;20034;-82
2023/10/31 04:59:21;;;;;;;1.83;0.60;;;11.40;99.90;;;10.99;100.00;98608.75;5030996;28;20040;-83
2023/10/31 05:01:50;;;;;;;1.65;0.60;;;11.40;99.90;;;10.94;100.00;98603.28;5028819;28;20521;-83
2023/10/31 05:04:17;;;;;;;0.85;0.57;;;11.30;99.90;;;10.93;100.00;98616.09;5034296;28;20096;-81
2023/10/31 05:06:42;;;;;;;1.17;0.50;;;11.40;99.90;;;10.94;100.00;98631.38;5032907;28;20094;-81
2023/10/31 05:09:10;;;;;;;0.50;0.40;;;11.40;99.90;;;10.90;100.00;98624.00;5031091;28;20500;-84
2023/10/31 05:11:36;;;;;;;1.83;0.40;;;11.30;99.90;;;10.83;100.00;98687.00;5030516;28;20045;-81
2023/10/31 05:14:02;;;;;;;1.05;0.20;;;11.30;99.90;;;10.81;100.00;98642.81;5032101;28;20107;-83
2023/10/31 05:16:27;;;;;;;0.20;0.10;;;11.30;99.90;;;10.83;100.00;98659.72;5031994;28;20037;-81
2023/10/31 05:18:53;;;;;;;0.57;0.13;;;11.30;99.90;;;10.71;100.00;98649.03;5032452;28;20500;-82
2023/10/31 05:21:23;;;;;;;0.70;0.20;;;11.20;99.90;;;10.74;100.00;98661.31;5040229;28;20072;-79
2023/10/31 05:23:49;;;;;;;0.70;0.20;;;11.20;99.90;;;10.68;100.00;98659.66;5036873;28;20488;-82
2023/10/31 05:26:15;;;;;;;0.52;0.22;;;11.20;99.90;;;10.61;100.00;98666.16;5034185;28;20051;-83
2023/10/31 05:28:40;;;;;;;0.30;0.10;;;11.10;99.90;;;10.59;100.00;98670.22;5046377;28;20038;-82
2023/10/31 05:31:06;;;;;;;0.30;0.20;;;11.10;99.90;;;10.65;100.00;98677.38;5036638;28;20041;-84
2023/10/31 05:33:32;;;;;;;0.57;0.20;;;11.10;99.90;;;10.58;100.00;98674.03;5032799;28;20370;-83
2023/10/31 05:35:58;;;;;;;2.58;0.30;;;11.10;99.90;;;10.57;100.00;98672.41;5031198;28;20661;-80
2023/10/31 05:38:23;;;;;;;1.10;0.40;;;11.10;99.90;;;10.62;100.00;98691.53;5033307;28;20056;-80
2023/10/31 05:40:49;;;;;;;1.48;0.30;;;11.10;99.90;;;10.56;100.00;98689.84;5029753;28;20033;-84
2023/10/31 05:43:15;;;;;;;0.77;0.30;;;11.10;99.90;;;10.67;100.00;98702.47;5032302;28;20052;-85
2023/10/31 05:45:41;;;;;;;0.73;0.20;;;11.10;99.90;;;10.55;100.00;98680.88;5030025;28;20404;-84
2023/10/31 05:48:06;;;;;;;1.48;0.40;;;11.10;99.90;;;10.56;100.00;98687.13;5034417;28;20040;-86
2023/10/31 05:50:32;;;;;;;0.10;0.10;;;11.00;99.90;;;10.58;100.00;98691.25;5031005;28;20046;-82
2023/10/31 05:52:58;;;;;;;0.32;0.15;;;11.00;99.90;;;10.62;100.00;98691.53;5032635;28;20029;-85
2023/10/31 05:55:24;;;;;;;0.30;0.20;;;11.00;99.90;;;10.55;100.00;98693.66;5031435;28;20076;-83
2023/10/31 05:57:50;;;;;;;0.47;0.22;;;11.00;99.90;;;10.62;100.00;98711.44;5030770;28;20055;-84
2023/10/31 06:00:16;;;;;;;0.85;0.32;;;11.00;99.90;;;10.57;100.00;98713.31;5034907;28;20100;-85
2023/10/31 06:02:41;;;;;;;2.75;0.45;;;11.00;99.90;;;10.60;100.00;98710.06;5021904;28;20053;-83
2023/10/31 06:05:08;;;;;;;0.50;0.30;;;11.00;99.90;;;10.61;100.00;98719.91;5030805;28;20045;-83
2023/10/31 06:07:34;;;;;;;1.13;0.30;;;11.00;99.90;;;10.71;100.00;98722.66;5033670;28;20041;-82
2023/10/31 06:09:59;;;;;;;0.40;0.20;;;11.10;99.90;;;10.68;100.00;98725.09;5034544;28;20427;-85
2023/10/31 06:12:27;;;;;;;0.70;0.30;;;11.00;99.90;;;10.71;100.00;98719.09;5031484;28;20117;-84
2023/10/31 06:14:52;;;;;;;2.50;0.40;;;11.00;99.90;;;10.61;100.00;98717.16;5035988;28;20493;-83
2023/10/31 06:17:18;;;;;;;0.75;0.40;;;11.10;99.90;;;10.69;100.00;98733.03;5041947;28;20038;-82
2023/10/31 06:19:45;;;;;;;2.08;0.47;;;11.00;99.90;;;10.72;100.00;98731.66;5025246;28;20048;-83
2023/10/31 06:22:12;;;;;;;1.77;0.40;;;11.00;99.90;;;10.70;100.00;98725.66;5025713;28;20576;-86
2023/10/31 06:24:37;;;;;;;1.15;0.30;;;11.00;99.90;;;10.67;100.00;98731.63;5031385;28;20116;-86
2023/10/31 06:27:03;;;;;;;0.45;0.30;;;11.00;99.90;;;10.68;100.00;98741.47;5028535;28;20037;-86
2023/10/31 06:29:29;;;;;;;1.10;0.50;;;10.90;99.90;;;10.63;100.00;98739.53;5035558;28;20088;-86
2023/10/31 06:31:54;;;;;;;1.02;0.52;;;10.90;99.90;;;10.62;100.00;98732.44;5031312;28;20025;-83
2023/10/31 06:34:20;;;;;;;4.65;0.95;;;10.90;99.90;;;10.55;100.00;98748.19;5022168;28;20786;-85
2023/10/31 06:36:46;;;;;;;4.32;1.20;;;10.90;99.90;;;10.53;100.00;98745.75;5027442;28;20037;-84
2023/10/31 06:39:12;;;;;;;2.47;1.08;;;10.90;99.90;;;10.61;100.00;98750.69;5032482;28;20038;-85
2023/10/31 06:41:37;;;;;;;2.05;1.13;;;10.90;99.90;;;10.57;100.00;98765.13;5036090;28;20029;-83
2023/10/31 06:44:03;;;;;;;3.83;1.20;;;11.00;99.90;;;10.50;100.00;98766.16;5033466;28;20098;-83
2023/10/31 06:46:29;;;;;;;3.25;1.25;;;10.90;99.90;;;10.48;100.00;98773.78;5029560;28;20033;-84
2023/10/31 06:48:55;;;;;;;2.97;1.23;;;11.00;99.90;;;10.50;100.00;98777.06;5024069;28;20044;-83
2023/10/31 06:51:20;;;;;;;3.70;1.38;;;11.00;99.90;;;10.56;100.00;98769.75;5028999;28;20044;-84
2023/10/31 06:53:46;;;;;;;2.85;1.45;;;11.00;99.90;;;10.39;100.00;98764.44;5029186;28;20049;-85
2023/10/31 06:56:12;;;;;;;5.28;1.33;;;11.00;99.90;;;10.60;100.00;98780.94;5030135;28;20056;-84
2023/10/31 06:58:38;;;;;;;3.47;1.40;;;11.00;99.90;;;10.55;100.00;98773.56;5026773;28;20048;-84
2023/10/31 07:01:03;;;;;;;3.78;1.48;;;11.00;99.90;;;10.50;100.00;98774.34;5036986;28;20037;-83
2023/10/31 07:03:29;;;;;;;5.25;1.55;;;11.00;99.90;;;10.52;100.00;98779.56;5038726;28;20037;-84
2023/10/31 07:05:56;;;;;;;3.55;1.50;;;11.00;99.90;;;10.59;100.00;98780.13;5028194;28;20045;-84
2023/10/31 07:08:23;;;;;;;3.55;1.40;;;11.00;99.90;;;10.65;100.00;98779.09;5039591;28;20005;-86
2023/10/31 07:10:48;;;;;;;4.25;1.63;;;11.00;99.90;;;10.63;100.00;98781.25;5033759;28;20045;-85
2023/10/31 07:13:14;;;;;;;3.10;1.48;;;11.00;99.90;;;10.60;100.00;98780.94;5035858;28;20037;-84
2023/10/31 07:15:40;;;;;;;4.20;1.30;;;11.00;99.90;;;10.58;100.00;98785.84;5031630;28;20039;-84
2023/10/31 07:18:09;;;;;;;2.65;1.55;;;11.00;99.90;;;10.54;100.00;98790.19;5027425;28;20481;-83
2023/10/31 07:20:34;;;;;;;5.45;1.63;;;11.00;99.90;;;10.59;100.00;98779.31;5042900;28;20120;-86
2023/10/31 07:23:00;;;;;;;3.88;1.40;;;11.00;99.90;;;10.41;100.00;98769.66;5029672;28;20193;-83
2023/10/31 07:25:27;;;;;;;2.80;1.30;;;11.00;99.90;;;10.61;100.00;98782.63;5025611;28;20041;-85
2023/10/31 07:27:52;;;;;;;5.28;1.80;;;11.00;99.90;;;10.67;100.00;98792.47;5026753;28;20091;-82
2023/10/31 07:30:19;;;;;;;3.72;1.38;;;11.00;99.90;;;10.69;100.00;98792.19;5040220;28;20037;-80
2023/10/31 07:32:45;;;;;;;3.35;1.50;;;11.00;99.90;;;10.61;100.00;98790.78;5022171;28;20120;-82
2023/10/31 07:35:10;;;;;;;3.10;1.50;;;11.00;99.90;;;10.69;100.00;98790.28;5019650;28;20137;-82
2023/10/31 07:37:36;;;;;;;3.17;1.42;;;11.00;99.90;;;10.64;100.00;98787.53;5018038;28;20034;-85
2023/10/31 07:40:04;;;;;;;2.47;1.27;;;11.00;99.90;;;10.64;100.00;98787.53;5022999;28;20064;-81
2023/10/31 07:42:30;;;;;;;4.57;1.50;;;11.00;99.90;;;10.64;100.00;98793.00;5024889;28;20037;-82
2023/10/31 07:44:55;;;;;;;3.70;1.40;;;11.00;99.90;;;10.68;100.00;98794.09;5021148;28;20438;-83
2023/10/31 07:47:21;;;;;;;3.03;1.10;;;11.00;99.90;;;10.69;100.00;98797.66;5024366;28;20089;-83
2023/10/31 07:49:48;;;;;;;2.90;1.10;;;11.00;99.90;;;10.61;100.00;98791.59;5023860;28;20067;-82
2023/10/31 07:52:14;;;;;;;3.28;1.20;;;11.10;99.90;;;10.62;100.00;98789.72;5029085;28;20113;-80
2023/10/31 07:54:40;;;;;;;2.70;1.00;;;11.10;99.90;;;10.81;100.00;98798.28;5012730;28;20053;-82
2023/10/31 07:57:06;;;;;;;2.13;0.90;;;11.20;99.90;;;10.88;100.00;98803.50;5021280;28;20029;-85
2023/10/31 07:59:36;;;;;;;4.00;1.10;;;11.30;99.90;;;10.86;100.00;98809.22;5023317;28;20045;-86
2023/10/31 08:02:02;;;;;;;2.35;0.90;;;11.30;99.90;;;10.71;100.00;98804.50;5017857;28;20580;-84
2023/10/31 08:04:29;;;;;;;2.58;0.70;;;11.20;99.90;;;10.74;100.00;98808.56;5028881;28;20037;-89
2023/10/31 08:06:56;;;;;;;3.43;0.90;;;11.20;99.90;;;10.63;100.00;98818.63;5023182;28;20042;-84
2023/10/31 08:09:21;;;;;;;3.42;0.90;;;11.10;99.90;;;10.63;100.00;98799.53;5029830;28;20041;-86
2023/10/31 08:11:47;;;;;;;2.83;0.80;;;11.10;99.90;;;10.58;100.00;98808.50;5016576;28;20041;-86
2023/10/31 08:14:15;;;;;;;1.95;0.70;;;11.10;99.90;;;10.65;100.00;98814.53;5045563;28;20030;-85
2023/10/31 08:16:42;;;;;;;2.40;0.80;;;11.10;99.90;;;10.77;100.00;98808.09;5015689;28;20041;-85
2023/10/31 08:19:08;;;;;;;1.98;0.70;;;11.10;99.90;;;10.68;100.00;98810.47;4998163;28;20592;-85
2023/10/31 08:21:35;;;;;;;1.58;1.05;;;11.10;99.90;;;10.65;100.00;98809.09;5024788;28;20104;-84
2023/10/31 08:24:05;;;;;;;1.70;0.90;;;11.10;99.90;;;10.55;100.00;98816.38;5024105;28;20388;-85
2023/10/31 08:26:32;;;;;;;1.88;0.80;;;11.00;99.90;;;10.64;100.00;98809.34;5027601;28;20026;-83
2023/10/31 08:28:58;;;;;;;3.03;0.98;;;11.10;99.90;;;10.81;100.00;98820.09;5023066;28;20144;-82
2023/10/31 08:31:24;;;;;;;1.83;0.65;;;11.20;99.90;;;10.72;100.00;98827.13;5033283;28;20091;-83
2023/10/31 08:33:50;;;;;;;2.08;0.57;;;11.20;99.90;;;10.77;100.00;98838.09;5024112;28;20037;-82
2023/10/31 08:36:16;;;;;;;0.57;0.45;;;11.20;99.90;;;10.77;100.00;98846.25;5027386;28;20042;-81
2023/10/31 08:38:41;;;;;;;0.93;0.47;;;11.30;99.90;;;10.78;100.00;98846.00;5029420;28;20037;-81
2023/10/31 08:41:07;;;;;;;1.90;0.60;;;11.30;99.90;;;10.85;100.00;98855.84;5029520;28;20037;-81
2023/10/31 08:43:33;;;;;;;1.55;0.70;;;11.30;99.90;;;11.10;100.00;98862.53;5032920;28;20044;-81
2023/10/31 08:45:58;;;;;;;2.35;0.40;;;11.50;99.90;;;11.32;100.00;98856.94;5022966;28;20037;-80
2023/10/31 08:48:24;;;;;;;1.50;0.70;;;11.70;99.90;;;11.21;100.00;98859.63;5016942;28;20034;-83
2023/10/31 08:50:50;;;;;;;2.65;0.80;;;11.70;99.90;;;11.21;100.00;98884.19;5018583;28;20034;-78
2023/10/31 08:53:16;;;;;;;1.73;0.50;;;11.70;99.90;;;11.43;100.00;98866.00;5027670;28;20060;-79
2023/10/31 08:55:44;;;;;;;2.45;0.73;;;11.90;99.90;;;11.47;100.00;98887.03;5023855;28;20064;-79
2023/10/31 08:58:14;;;;;;;1.90;0.77;;;12.00;99.90;;;11.58;100.00;98887.09;5024893;28;20045;-80
2023/10/31 09:00:41;;;;;;;0.95;0.57;;;12.00;99.90;;;11.61;100.00;98900.22;5021200;28;20064;-82
2023/10/31 09:03:07;;;;;;;2.00;0.60;;;12.20;99.90;;;11.64;100.00;98895.03;4998705;28;20069;-80
2023/10/31 09:05:33;;;;;;;0.85;0.40;;;12.20;99.90;;;11.49;100.00;98897.72;5031387;28;20029;-79
2023/10/31 09:07:59;;;;;;;1.60;0.60;;;12.10;99.90;;;11.57;100.00;98913.56;5012809;28;20441;-80
2023/10/31 09:10:25;;;;;;;1.73;0.55;;;12.10;99.90;;;11.45;100.00;98921.19;5012134;28;20030;-79
2023/10/31 09:12:51;;;;;;;2.63;0.57;;;12.00;99.90;;;11.50;100.00;98940.31;5031498;28;20512;-80
2023/10/31 09:15:16;;;;;;;1.33;0.70;;;12.00;99.90;;;11.55;100.00;98928.59;5031263;28;20046;-79
2023/10/31 09:17:43;;;;;;;1.00;0.70;;;12.00;99.90;;;11.60;100.00;98947.75;5034907;28;20034;-80
2023/10/31 09:20:09;;;;;;;1.40;0.80;;;12.00;99.90;;;11.57;100.00;98940.91;5016763;28;20041;-80
2023/10/31 09:22:35;;;;;;;1.65;0.60;;;12.10;99.90;;;11.93;100.00;98934.78;5028726;28;20061;-80
2023/10/31 09:25:02;;;;;;;1.55;0.70;;;12.30;99.90;;;11.74;100.00;98937.16;5025269;28;20443;-79
2023/10/31 09:27:28;;;;;;;2.17;0.50;;;12.40;99.90;;;12.34;100.00;98937.66;5026992;28;20033;-79
2023/10/31 09:29:53;;;;;;;1.42;0.40;;;12.80;99.90;;;12.39;100.00;98958.72;5026074;28;20095;-79
2023/10/31 09:32:19;;;;;;;0.47;0.30;;;12.90;99.90;;;12.37;100.00;98942.59;5018476;28;20034;-79
2023/10/31 09:34:45;;;;;;;1.75;0.50;;;12.90;99.90;;;12.14;100.00;98954.00;5012779;28;20058;-79
2023/10/31 09:37:10;;;;;;;1.05;0.47;;;12.80;99.90;;;11.97;100.00;98963.19;5024211;28;20034;-79
2023/10/31 09:39:36;;;;;;;2.60;0.75;;;12.50;99.90;;;11.55;100.00;98962.19;5030937;28;20037;-80
2023/10/31 09:42:03;;;;;;;3.90;0.60;;;12.20;99.90;;;11.47;100.00;98968.16;5031053;28;20041;-79
2023/10/31 09:44:29;;;;;;;1.20;0.40;;;12.00;99.90;;;11.37;100.00;98988.03;5027142;28;20084;-81
2023/10/31 09:46:56;;;;;;;2.22;0.63;;;12.00;99.90;;;11.44;100.00;98993.25;5027012;28;20045;-82
2023/10/31 09:49:22;;;;;;;1.25;0.40;;;11.90;99.90;;;11.48;100.00;98994.38;5019136;28;20033;-80
2023/10/31 09:51:48;;;;;;;1.50;0.60;;;11.90;99.90;;;11.51;100.00;98994.66;5017883;28;20042;-78
2023/10/31 09:54:17;;;;;;;0.93;0.45;;;11.90;99.90;;;11.54;100.00;98997.94;5003331;28;1034631;-79
2023/10/31 09:56:43;;;;;;;0.45;0.20;;;11.90;99.90;;;11.57;100.00;99030.22;5023866;28;20029;-78
2023/10/31 09:59:09;;;;;;;2.03;0.35;;;11.90;99.90;;;11.39;100.00;99023.22;5028112;28;20507;-78
2023/10/31 10:01:35;;;;;;;0.85;0.30;;;11.90;99.90;;;11.40;100.00;99017.53;5025529;28;20045;-78
2023/10/31 10:04:02;;;;;;;1.15;0.50;;;11.90;99.90;;;11.31;100.00;99030.03;5026667;28;20045;-78
2023/10/31 10:06:28;;;;;;;1.10;0.40;;;11.80;99.90;;;11.31;100.00;99024.56;5022820;28;20167;-79